In Rescue
 
Open Full Screen Window  High Contrast Mode
Wind Gusting 14 knots
08
May 25, 2022 10:28 PM EDT
Present Weather: Heavy Rain
Weather Information
Wind Direction
  140 °
Wind Speed
  08 kt (9 mph)
Wind Gust
  14 kt (16 mph)
Altimeter
29.95 in
Visibility
4 SM
Temperature
18° C
64° F
Dewpoint
17° C
63° F
Humidity
94%
Sky Condition
Overcast @ 12,000 ft
Broken @ 4,200 ft
Scattered @ 2,300 ft
MVFR

METAR KTEW 260228Z AUTO 14008G14KT 4SM +RA SCT023 BKN042 OVC120 18/17 A2995 RMK AO2 T01820168

FAA Disclaimer: The data displayed is for advisory purposes only and is not to be used for flight planning or operations.